createdAt,value
2022-09-20T00:01:24.757Z,0.80
2022-09-20T00:03:54.429Z,0.30
2022-09-20T00:06:22.714Z,0.60
2022-09-20T00:08:50.090Z,0.50
2022-09-20T00:11:19.557Z,0.60
2022-09-20T00:13:47.990Z,0.40
2022-09-20T00:16:27.248Z,0.40
2022-09-20T00:18:55.920Z,0.60
2022-09-20T00:21:25.538Z,0.30
2022-09-20T00:23:52.999Z,0.60
2022-09-20T00:26:20.465Z,0.40
2022-09-20T00:28:47.411Z,0.30
2022-09-20T00:31:14.838Z,0.20
2022-09-20T00:34:03.839Z,0.50
2022-09-20T00:36:31.974Z,0.70
2022-09-20T00:38:59.889Z,0.40
2022-09-20T00:41:26.938Z,0.50
2022-09-20T00:43:54.503Z,0.60
2022-09-20T00:46:36.403Z,0.60
2022-09-20T00:49:13.391Z,0.50
2022-09-20T00:51:41.670Z,0.80
2022-09-20T00:54:09.547Z,0.40
2022-09-20T00:56:38.367Z,0.30
2022-09-20T00:59:25.050Z,0.50
2022-09-20T01:01:55.653Z,0.60
2022-09-20T01:04:24.276Z,0.50
2022-09-20T01:06:52.031Z,0.70
2022-09-20T01:09:19.399Z,0.50
2022-09-20T01:11:46.657Z,0.50
2022-09-20T01:14:14.008Z,0.40
2022-09-20T01:16:41.310Z,0.40
2022-09-20T01:19:32.481Z,0.50
2022-09-20T01:22:01.372Z,0.50
2022-09-20T01:24:42.655Z,0.50
2022-09-20T01:27:18.409Z,0.50
2022-09-20T01:30:24.060Z,0.50
2022-09-20T01:33:13.334Z,1.00
2022-09-20T01:35:41.015Z,0.50
2022-09-20T01:38:22.843Z,1.00
2022-09-20T01:41:07.007Z,1.00
2022-09-20T01:43:51.901Z,0.70
2022-09-20T01:46:31.972Z,0.60
2022-09-20T01:49:27.389Z,0.70
2022-09-20T01:52:15.949Z,0.70
2022-09-20T01:55:07.368Z,1.00
2022-09-20T01:58:36.061Z,1.20
2022-09-20T02:01:05.531Z,3.20
2022-09-20T02:03:46.679Z,6.30
2022-09-20T02:06:18.101Z,7.80
2022-09-20T02:08:56.526Z,7.60
2022-09-20T02:11:40.669Z,7.20
2022-09-20T02:14:23.189Z,6.30
2022-09-20T02:16:54.426Z,5.40
2022-09-20T02:19:40.628Z,5.20
2022-09-20T02:22:16.698Z,4.90
2022-09-20T02:24:55.017Z,4.40
2022-09-20T02:27:45.822Z,4.40
2022-09-20T02:30:40.637Z,4.10
2022-09-20T02:33:42.799Z,4.00
2022-09-20T02:36:26.847Z,1.90
2022-09-20T02:39:12.232Z,2.10
2022-09-20T02:42:03.764Z,1.40
2022-09-20T02:45:13.737Z,1.50
2022-09-20T02:47:43.444Z,1.70
2022-09-20T02:50:39.376Z,1.10
2022-09-20T02:53:31.225Z,1.40
2022-09-20T02:56:28.884Z,1.80
2022-09-20T02:59:12.426Z,2.30
2022-09-20T03:02:10.985Z,3.50
2022-09-20T03:04:56.809Z,3.70
2022-09-20T03:07:45.678Z,3.30
2022-09-20T03:10:31.982Z,2.10
2022-09-20T03:13:08.763Z,2.70
2022-09-20T03:15:48.312Z,1.20
2022-09-20T03:18:18.030Z,1.00
2022-09-20T03:21:14.681Z,1.10
2022-09-20T03:23:57.811Z,1.00
2022-09-20T03:27:02.556Z,0.90
2022-09-20T03:29:58.998Z,0.90
2022-09-20T03:32:42.963Z,0.50
2022-09-20T03:35:19.628Z,0.80
2022-09-20T03:38:05.322Z,0.70
2022-09-20T03:40:46.667Z,0.60
2022-09-20T03:43:34.866Z,0.80
2022-09-20T03:46:19.344Z,0.60
2022-09-20T03:48:58.361Z,0.70
2022-09-20T03:51:43.850Z,0.90
2022-09-20T03:54:43.165Z,1.10
2022-09-20T03:57:34.324Z,0.60
2022-09-20T04:00:07.175Z,0.60
2022-09-20T04:02:59.115Z,0.60
2022-09-20T04:05:57.300Z,1.20
2022-09-20T04:08:31.011Z,1.50
2022-09-20T04:11:16.498Z,0.70
2022-09-20T04:14:09.311Z,0.70
2022-09-20T04:17:02.825Z,1.10
2022-09-20T04:19:36.290Z,0.80
2022-09-20T04:22:03.306Z,0.70
2022-09-20T04:24:55.029Z,0.90
2022-09-20T04:27:37.786Z,0.90
2022-09-20T04:30:11.772Z,0.70
2022-09-20T04:32:41.686Z,1.20
2022-09-20T04:35:33.934Z,0.90
2022-09-20T04:38:04.980Z,0.70
2022-09-20T04:41:06.750Z,1.00
2022-09-20T04:44:27.219Z,1.90
2022-09-20T04:47:25.034Z,1.50
2022-09-20T04:50:26.898Z,1.90
2022-09-20T04:53:31.945Z,2.10
2022-09-20T04:56:21.834Z,2.00
2022-09-20T04:58:49.395Z,2.20
2022-09-20T05:01:39.306Z,2.60
2022-09-20T05:04:25.381Z,2.40
2022-09-20T05:07:16.397Z,2.30
2022-09-20T05:10:21.439Z,2.60
2022-09-20T05:12:52.892Z,2.60
2022-09-20T05:16:02.443Z,2.20
2022-09-20T05:19:06.874Z,2.10
2022-09-20T05:21:52.159Z,2.20
2022-09-20T05:24:48.295Z,2.20
2022-09-20T05:27:28.967Z,2.50
2022-09-20T05:30:08.308Z,3.90
2022-09-20T05:32:35.466Z,2.60
2022-09-20T05:35:26.794Z,2.50
2022-09-20T05:38:05.507Z,2.20
2022-09-20T05:41:13.231Z,1.70
2022-09-20T05:43:50.420Z,2.10
2022-09-20T05:46:41.522Z,1.70
2022-09-20T05:49:31.509Z,1.50
2022-09-20T05:52:33.689Z,1.50
2022-09-20T05:55:21.530Z,1.40
2022-09-20T05:58:26.231Z,1.30
2022-09-20T06:01:04.206Z,1.20
2022-09-20T06:03:37.875Z,1.60
2022-09-20T06:06:32.746Z,1.70
2022-09-20T06:08:59.825Z,1.20
2022-09-20T06:11:57.694Z,3.60
2022-09-20T06:14:37.543Z,1.00
2022-09-20T06:17:37.255Z,1.30
2022-09-20T06:20:27.752Z,0.90
2022-09-20T06:22:56.471Z,1.00
2022-09-20T06:25:42.427Z,0.80
2022-09-20T06:28:18.284Z,0.60
2022-09-20T06:30:52.443Z,0.90
2022-09-20T06:33:26.876Z,1.10
2022-09-20T06:36:24.126Z,1.30
2022-09-20T06:39:14.057Z,0.80
2022-09-20T06:41:40.701Z,0.50
2022-09-20T06:44:07.439Z,0.50
2022-09-20T06:46:35.617Z,0.80
2022-09-20T06:49:03.790Z,0.80
2022-09-20T06:51:34.323Z,0.60
2022-09-20T06:54:00.964Z,0.70
2022-09-20T06:56:30.977Z,0.60
2022-09-20T06:58:58.639Z,0.60
2022-09-20T07:01:30.659Z,0.40
2022-09-20T07:03:58.986Z,0.60
2022-09-20T07:06:26.288Z,0.70
2022-09-20T07:08:53.091Z,0.70
2022-09-20T07:11:22.898Z,0.70
2022-09-20T07:13:51.584Z,0.70
2022-09-20T07:16:19.479Z,0.60
2022-09-20T07:18:47.926Z,0.60
2022-09-20T07:21:16.646Z,0.70
2022-09-20T07:23:45.502Z,0.70
2022-09-20T07:26:18.083Z,0.60
2022-09-20T07:28:45.039Z,0.70
2022-09-20T07:31:12.696Z,0.60
2022-09-20T07:33:40.148Z,0.70
2022-09-20T07:36:07.193Z,0.40
2022-09-20T07:38:34.038Z,0.40
2022-09-20T07:41:02.116Z,0.50
2022-09-20T07:43:31.933Z,0.60
2022-09-20T07:45:59.661Z,0.50
2022-09-20T07:48:32.171Z,0.70
2022-09-20T07:51:03.874Z,0.70
2022-09-20T07:53:34.508Z,0.50
2022-09-20T07:56:03.348Z,0.60
2022-09-20T07:58:31.212Z,0.60
2022-09-20T08:01:00.909Z,0.70
2022-09-20T08:03:30.425Z,0.60
2022-09-20T08:06:01.264Z,0.60
2022-09-20T08:08:31.740Z,0.60
2022-09-20T08:11:09.793Z,0.60
2022-09-20T08:16:31.513Z,0.30
2022-09-20T08:19:00.287Z,0.60
2022-09-20T08:21:30.448Z,0.60
2022-09-20T08:23:58.544Z,0.60
2022-09-20T08:26:27.136Z,0.60
2022-09-20T08:28:55.721Z,0.70
2022-09-20T08:31:24.616Z,0.60
2022-09-20T08:33:52.694Z,1.70
2022-09-20T08:36:24.253Z,0.50
2022-09-20T08:41:46.866Z,0.60
2022-09-20T08:44:35.159Z,0.40
2022-09-20T08:47:30.614Z,0.50
2022-09-20T08:49:58.291Z,0.50
2022-09-20T08:52:29.934Z,0.60
2022-09-20T08:54:59.672Z,0.40
2022-09-20T08:57:28.635Z,0.40
2022-09-20T08:59:55.314Z,0.30
2022-09-20T09:02:22.313Z,0.40
2022-09-20T09:04:50.956Z,0.90
2022-09-20T09:07:20.421Z,0.40
2022-09-20T09:09:48.951Z,0.40
2022-09-20T09:12:26.557Z,0.50
2022-09-20T09:14:54.668Z,0.30
2022-09-20T09:17:29.051Z,0.40
2022-09-20T09:20:07.166Z,0.40
2022-09-20T09:22:42.099Z,0.40
2022-09-20T09:25:16.428Z,0.80
2022-09-20T09:27:50.342Z,0.30
2022-09-20T09:30:35.325Z,0.40
2022-09-20T09:33:34.829Z,0.40
2022-09-20T09:36:13.443Z,0.40
2022-09-20T09:38:43.966Z,0.50
2022-09-20T09:41:24.037Z,0.40
2022-09-20T09:44:06.657Z,0.40
2022-09-20T09:46:34.936Z,0.40
2022-09-20T09:49:19.585Z,0.50
2022-09-20T09:52:13.873Z,0.30
2022-09-20T09:54:47.070Z,0.50
2022-09-20T09:57:29.582Z,0.40
2022-09-20T10:00:18.394Z,0.40
2022-09-20T10:02:53.069Z,0.40
2022-09-20T10:05:55.450Z,0.40
2022-09-20T10:08:23.110Z,0.30
2022-09-20T10:11:02.550Z,0.30
2022-09-20T10:13:49.461Z,0.30
2022-09-20T10:16:20.132Z,0.20
2022-09-20T10:19:06.047Z,0.30
2022-09-20T10:21:43.702Z,0.30
2022-09-20T10:24:17.137Z,0.40
2022-09-20T10:26:48.540Z,0.30
2022-09-20T10:29:28.385Z,0.30
2022-09-20T10:32:21.533Z,0.40
2022-09-20T10:35:15.421Z,0.70
2022-09-20T10:38:01.104Z,0.50
2022-09-20T10:40:51.819Z,0.60
2022-09-20T10:43:33.698Z,0.50
2022-09-20T10:46:32.377Z,0.60
2022-09-20T10:49:29.442Z,0.50
2022-09-20T10:52:18.815Z,0.60
2022-09-20T10:55:04.397Z,4.00
2022-09-20T10:57:48.545Z,1.70
2022-09-20T11:00:22.018Z,0.70
2022-09-20T11:03:07.634Z,2.30
2022-09-20T11:05:43.183Z,1.50
2022-09-20T11:08:15.143Z,0.80
2022-09-20T11:10:44.568Z,0.50
2022-09-20T11:13:26.674Z,0.40
2022-09-20T11:16:14.086Z,0.60
2022-09-20T11:18:53.448Z,0.60
2022-09-20T11:21:32.383Z,0.90
2022-09-20T11:24:19.713Z,0.80
2022-09-20T11:26:51.879Z,0.60
2022-09-20T11:29:25.892Z,0.40
2022-09-20T11:31:54.302Z,0.40
2022-09-20T11:34:26.744Z,0.60
2022-09-20T11:36:56.968Z,0.50
2022-09-20T11:39:35.894Z,0.40
2022-09-20T11:42:03.870Z,0.50
2022-09-20T11:44:31.430Z,0.40
2022-09-20T11:47:07.295Z,0.40
2022-09-20T11:49:44.267Z,0.40
2022-09-20T11:52:28.416Z,0.80
2022-09-20T11:54:59.670Z,0.40
2022-09-20T11:57:26.277Z,0.40
2022-09-20T11:59:58.787Z,0.20
2022-09-20T12:02:32.690Z,1.10
2022-09-20T12:05:01.512Z,0.40
2022-09-20T12:07:34.495Z,0.50
2022-09-20T12:10:10.154Z,0.30
2022-09-20T12:12:47.446Z,0.40
2022-09-20T12:15:41.632Z,0.40
2022-09-20T12:18:28.650Z,0.40
2022-09-20T12:20:57.440Z,0.50
2022-09-20T12:23:39.851Z,0.30
2022-09-20T12:26:16.334Z,0.40
2022-09-20T12:28:49.520Z,0.50
2022-09-20T12:31:28.883Z,0.50
2022-09-20T12:34:11.196Z,0.60
2022-09-20T12:36:39.547Z,0.70
2022-09-20T12:39:15.302Z,0.50
2022-09-20T12:41:56.078Z,0.50
2022-09-20T12:44:43.338Z,0.50
2022-09-20T12:47:10.053Z,0.50
2022-09-20T12:50:05.745Z,0.60
2022-09-20T12:52:55.667Z,0.40
2022-09-20T12:57:57.969Z,0.60
2022-09-20T13:03:41.126Z,0.50
2022-09-20T13:06:15.859Z,0.70
2022-09-20T13:09:02.064Z,0.50
2022-09-20T13:11:45.400Z,0.50
2022-09-20T13:14:12.970Z,0.50
2022-09-20T13:17:13.102Z,0.80
2022-09-20T13:19:46.713Z,0.80
2022-09-20T13:22:24.219Z,0.90
2022-09-20T13:24:55.212Z,0.70
2022-09-20T13:27:22.446Z,0.50
2022-09-20T13:29:49.162Z,0.60
2022-09-20T13:32:25.945Z,0.60
2022-09-20T13:35:07.485Z,0.50
2022-09-20T13:37:34.802Z,0.40
2022-09-20T13:40:02.125Z,0.70
2022-09-20T13:42:29.968Z,0.60
2022-09-20T13:44:58.629Z,0.60
2022-09-20T13:47:29.776Z,1.00
2022-09-20T13:50:18.353Z,0.80
2022-09-20T13:52:54.252Z,0.60
2022-09-20T13:55:33.840Z,1.00
2022-09-20T13:58:09.190Z,1.60
2022-09-20T14:00:37.675Z,0.70
2022-09-20T14:03:06.984Z,0.90
2022-09-20T14:05:34.242Z,0.90
2022-09-20T14:08:01.296Z,0.90
2022-09-20T14:10:30.616Z,0.70
2022-09-20T14:13:00.531Z,0.90
2022-09-20T14:15:34.050Z,1.00
2022-09-20T14:18:03.850Z,1.00
2022-09-20T14:20:31.306Z,1.00
2022-09-20T14:22:59.271Z,0.80
2022-09-20T14:25:26.735Z,1.00
2022-09-20T14:28:17.129Z,1.90
2022-09-20T14:30:45.163Z,0.90
2022-09-20T14:33:19.888Z,1.00
2022-09-20T14:35:48.518Z,0.90
2022-09-20T14:38:16.036Z,0.80
2022-09-20T14:40:44.153Z,0.90
2022-09-20T14:43:22.365Z,1.10
2022-09-20T14:45:54.783Z,1.00
2022-09-20T14:48:22.308Z,0.80
2022-09-20T14:51:21.519Z,0.80
2022-09-20T14:54:11.616Z,1.10
2022-09-20T14:56:40.931Z,1.10
2022-09-20T14:59:11.263Z,0.80
2022-09-20T15:01:45.384Z,0.90
2022-09-20T15:04:21.094Z,1.00
2022-09-20T15:06:50.248Z,0.80
2022-09-20T15:09:18.325Z,1.80
2022-09-20T15:11:45.283Z,1.00
2022-09-20T15:14:12.359Z,1.20
2022-09-20T15:16:39.639Z,1.20
2022-09-20T15:19:07.921Z,1.30
2022-09-20T15:21:36.057Z,1.40
2022-09-20T15:24:02.907Z,1.20
2022-09-20T15:26:32.313Z,1.10
2022-09-20T15:29:00.597Z,0.90
2022-09-20T15:31:28.484Z,1.20
2022-09-20T15:33:55.934Z,1.00
2022-09-20T15:36:22.988Z,1.20
2022-09-20T15:38:53.242Z,1.10
2022-09-20T15:41:26.957Z,1.00
2022-09-20T15:43:58.890Z,1.40
2022-09-20T15:46:26.566Z,0.90
2022-09-20T15:48:53.929Z,1.40
2022-09-20T15:51:20.880Z,1.00
2022-09-20T15:53:55.002Z,1.20
2022-09-20T15:56:23.284Z,0.80
2022-09-20T15:58:51.874Z,0.90
2022-09-20T16:01:19.398Z,1.10
2022-09-20T16:03:46.574Z,1.10
2022-09-20T16:06:14.854Z,1.40
2022-09-20T16:08:42.313Z,1.60
2022-09-20T16:11:12.163Z,1.20
2022-09-20T16:13:39.616Z,1.20
2022-09-20T16:16:08.289Z,1.30
2022-09-20T16:18:55.173Z,0.90
2022-09-20T16:21:22.833Z,1.60
2022-09-20T16:23:54.905Z,1.10
2022-09-20T16:26:23.799Z,1.40
2022-09-20T16:28:50.733Z,1.20
2022-09-20T16:31:34.318Z,1.10
2022-09-20T16:34:03.367Z,1.10
2022-09-20T16:36:31.570Z,1.20
2022-09-20T16:38:59.093Z,1.30
2022-09-20T16:41:27.980Z,1.20
2022-09-20T16:43:54.926Z,1.00
2022-09-20T16:46:24.673Z,1.00
2022-09-20T16:48:54.039Z,1.30
2022-09-20T16:51:23.440Z,1.20
2022-09-20T16:53:55.139Z,1.50
2022-09-20T16:56:23.883Z,4.60
2022-09-20T16:58:51.724Z,1.30
2022-09-20T17:01:18.531Z,1.40
2022-09-20T17:03:46.766Z,1.30
2022-09-20T17:06:14.538Z,1.20
2022-09-20T17:08:41.846Z,1.60
2022-09-20T17:11:10.565Z,1.00
2022-09-20T17:13:38.942Z,2.10
2022-09-20T17:16:08.079Z,1.20
2022-09-20T17:18:41.218Z,1.00
2022-09-20T17:21:10.332Z,1.60
2022-09-20T17:23:37.890Z,1.00
2022-09-20T17:26:18.763Z,1.30
2022-09-20T17:28:50.915Z,1.60
2022-09-20T17:31:23.129Z,2.50
2022-09-20T17:33:51.169Z,2.50
2022-09-20T17:36:20.936Z,3.00
2022-09-20T17:38:52.327Z,4.20
2022-09-20T17:41:19.884Z,4.10
2022-09-20T17:43:47.032Z,3.00
2022-09-20T17:46:20.068Z,3.30
2022-09-20T17:48:50.042Z,3.10
2022-09-20T17:51:18.524Z,3.90
2022-09-20T17:53:46.289Z,3.90
2022-09-20T17:56:14.216Z,4.30
2022-09-20T17:58:42.356Z,4.40
2022-09-20T18:01:14.144Z,3.50
2022-09-20T18:03:42.914Z,2.70
2022-09-20T18:06:21.287Z,2.30
2022-09-20T18:08:50.793Z,2.40
2022-09-20T18:11:18.882Z,2.70
2022-09-20T18:13:46.661Z,2.40
2022-09-20T18:16:15.587Z,2.60
2022-09-20T18:18:44.157Z,2.10
2022-09-20T18:21:25.237Z,2.30
2022-09-20T18:23:52.497Z,3.80
2022-09-20T18:26:23.850Z,2.90
2022-09-20T18:29:01.750Z,2.10
2022-09-20T18:31:35.369Z,2.10
2022-09-20T18:34:06.813Z,2.00
2022-09-20T18:36:35.794Z,2.00
2022-09-20T18:39:05.416Z,2.00
2022-09-20T18:41:36.265Z,2.30
2022-09-20T18:44:07.169Z,2.40
2022-09-20T18:46:37.371Z,2.20
2022-09-20T18:49:06.317Z,2.30
2022-09-20T18:51:39.223Z,2.20
2022-09-20T18:54:11.473Z,2.20
2022-09-20T18:56:42.588Z,2.00
2022-09-20T18:59:19.914Z,2.00
2022-09-20T19:01:56.421Z,2.70
2022-09-20T19:05:23.530Z,2.50
2022-09-20T19:07:56.625Z,2.50
2022-09-20T19:10:45.593Z,2.50
2022-09-20T19:13:46.339Z,2.60
2022-09-20T19:16:19.764Z,2.60
2022-09-20T19:18:59.507Z,2.80
2022-09-20T19:21:48.377Z,2.80
2022-09-20T19:24:31.508Z,2.80
2022-09-20T19:26:59.586Z,3.20
2022-09-20T19:29:27.865Z,2.50
2022-09-20T19:31:56.376Z,3.40
2022-09-20T19:34:25.346Z,4.50
2022-09-20T19:37:07.885Z,4.20
2022-09-20T19:39:56.731Z,4.00
2022-09-20T19:42:35.593Z,3.60
2022-09-20T19:45:06.435Z,3.80
2022-09-20T19:48:10.057Z,3.20
2022-09-20T19:50:47.554Z,3.30
2022-09-20T19:53:16.413Z,3.30
2022-09-20T19:55:46.609Z,3.30
2022-09-20T19:58:14.557Z,3.00
2022-09-20T20:00:45.408Z,3.20
2022-09-20T20:03:13.134Z,3.40
2022-09-20T20:05:48.601Z,3.40
2022-09-20T20:08:20.111Z,3.40
2022-09-20T20:10:49.089Z,2.90
2022-09-20T20:14:00.691Z,3.60
2022-09-20T20:16:48.335Z,3.50
2022-09-20T20:19:16.111Z,3.30
2022-09-20T20:21:57.708Z,3.10
2022-09-20T20:24:30.740Z,3.30
2022-09-20T20:26:57.437Z,3.60
2022-09-20T20:29:25.230Z,3.60
2022-09-20T20:31:52.392Z,3.50
2022-09-20T20:34:20.072Z,3.90
2022-09-20T20:36:47.834Z,4.10
2022-09-20T20:39:15.504Z,3.30
2022-09-20T20:41:42.823Z,3.60
2022-09-20T20:44:10.434Z,3.90
2022-09-20T20:46:37.650Z,3.80
2022-09-20T20:49:04.641Z,3.70
2022-09-20T20:51:32.826Z,3.40
2022-09-20T20:53:59.986Z,3.90
2022-09-20T20:56:28.162Z,4.50
2022-09-20T20:59:00.137Z,3.60
2022-09-20T21:01:34.824Z,4.50
2022-09-20T21:04:03.052Z,4.00
2022-09-20T21:06:31.545Z,4.40
2022-09-20T21:09:00.134Z,4.30
2022-09-20T21:11:32.150Z,3.80
2022-09-20T21:14:00.486Z,3.90
2022-09-20T21:16:29.286Z,4.10
2022-09-20T21:18:56.568Z,4.30
2022-09-20T21:21:29.335Z,5.00
2022-09-20T21:23:58.268Z,4.30
2022-09-20T21:26:27.232Z,4.40
2022-09-20T21:28:59.316Z,4.60
2022-09-20T21:31:31.169Z,4.00
2022-09-20T21:33:58.736Z,4.40
2022-09-20T21:36:27.531Z,4.30
2022-09-20T21:38:54.687Z,3.80
2022-09-20T21:41:32.493Z,5.00
2022-09-20T21:44:01.656Z,4.40
2022-09-20T21:46:32.767Z,4.50
2022-09-20T21:49:04.213Z,4.50
2022-09-20T21:51:32.596Z,4.50
2022-09-20T21:54:00.872Z,4.30
2022-09-20T21:56:30.633Z,4.10
2022-09-20T21:59:01.430Z,4.60
2022-09-20T22:01:31.012Z,4.20
2022-09-20T22:04:00.347Z,4.40
2022-09-20T22:06:32.108Z,5.00
2022-09-20T22:09:01.226Z,4.60
2022-09-20T22:11:33.593Z,4.00
2022-09-20T22:14:01.257Z,4.30
2022-09-20T22:16:32.409Z,4.00
2022-09-20T22:21:34.839Z,3.60
2022-09-20T22:24:03.141Z,4.00
2022-09-20T22:26:32.097Z,4.10
2022-09-20T22:28:59.146Z,3.90
2022-09-20T22:31:27.988Z,3.70
2022-09-20T22:33:57.145Z,3.80
2022-09-20T22:36:29.015Z,3.90
2022-09-20T22:38:56.580Z,4.00
2022-09-20T22:41:24.350Z,3.50
2022-09-20T22:43:51.603Z,4.30
2022-09-20T22:46:23.103Z,3.80
2022-09-20T22:48:50.022Z,3.60
2022-09-20T22:51:24.749Z,4.10
2022-09-20T22:53:52.211Z,3.50
2022-09-20T22:56:20.799Z,3.40
2022-09-20T22:58:49.283Z,3.60
2022-09-20T23:01:17.315Z,3.60
2022-09-20T23:03:58.840Z,3.60
2022-09-20T23:06:30.616Z,3.70
2022-09-20T23:09:00.746Z,3.50
2022-09-20T23:11:28.454Z,3.20
2022-09-20T23:13:57.927Z,2.80
2022-09-20T23:16:29.140Z,3.30
2022-09-20T23:18:57.053Z,3.60
2022-09-20T23:21:23.996Z,3.20
2022-09-20T23:24:01.801Z,3.30
2022-09-20T23:26:31.959Z,3.90
2022-09-20T23:29:00.214Z,3.50
2022-09-20T23:31:27.781Z,3.10
2022-09-20T23:33:58.838Z,3.20
2022-09-20T23:36:27.824Z,3.30
2022-09-20T23:38:56.550Z,3.50
2022-09-20T23:41:26.234Z,3.50
2022-09-20T23:43:53.085Z,3.30
2022-09-20T23:46:21.373Z,3.50
2022-09-20T23:48:49.850Z,3.50
2022-09-20T23:51:19.253Z,3.80
2022-09-20T23:53:46.615Z,3.40
2022-09-20T23:56:14.074Z,4.10
2022-09-20T23:58:41.638Z,3.50
